sensor_id;sensor_type;location;lat;lon;timestamp;pressure;altitude;pressure_sealevel;temperature;humidity
64053;BME280;50299;49.524;8.536;2023-03-14T00:00:12;98707.25;;;5.60;92.59
64053;BME280;50299;49.524;8.536;2023-03-14T00:02:39;98720.06;;;5.69;92.13
64053;BME280;50299;49.524;8.536;2023-03-14T00:05:07;98723.88;;;5.43;92.41
64053;BME280;50299;49.524;8.536;2023-03-14T00:07:36;98726.28;;;5.24;94.71
64053;BME280;50299;49.524;8.536;2023-03-14T00:10:09;98732.38;;;5.62;93.35
64053;BME280;50299;49.524;8.536;2023-03-14T00:12:36;98735.72;;;5.68;92.38
64053;BME280;50299;49.524;8.536;2023-03-14T00:15:03;98720.81;;;5.57;91.50
64053;BME280;50299;49.524;8.536;2023-03-14T00:17:30;98717.47;;;5.84;91.70
64053;BME280;50299;49.524;8.536;2023-03-14T00:19:57;98724.09;;;5.83;89.62
64053;BME280;50299;49.524;8.536;2023-03-14T00:22:31;98725.88;;;5.67;90.71
64053;BME280;50299;49.524;8.536;2023-03-14T00:24:58;98714.41;;;5.53;91.89
64053;BME280;50299;49.524;8.536;2023-03-14T00:27:24;98717.63;;;5.67;90.73
64053;BME280;50299;49.524;8.536;2023-03-14T00:29:50;98711.50;;;5.70;91.31
64053;BME280;50299;49.524;8.536;2023-03-14T00:32:17;98708.88;;;5.74;90.92
64053;BME280;50299;49.524;8.536;2023-03-14T00:34:43;98705.88;;;5.66;91.46
64053;BME280;50299;49.524;8.536;2023-03-14T00:37:10;98705.22;;;5.36;92.02
64053;BME280;50299;49.524;8.536;2023-03-14T00:39:36;98693.53;;;5.60;93.39
64053;BME280;50299;49.524;8.536;2023-03-14T00:42:03;98701.72;;;5.48;92.30
64053;BME280;50299;49.524;8.536;2023-03-14T00:44:30;98701.38;;;5.50;92.73
64053;BME280;50299;49.524;8.536;2023-03-14T00:46:56;98697.97;;;5.53;92.17
64053;BME280;50299;49.524;8.536;2023-03-14T00:49:23;98693.94;;;5.17;92.59
64053;BME280;50299;49.524;8.536;2023-03-14T00:51:50;98691.41;;;5.45;93.22
64053;BME280;50299;49.524;8.536;2023-03-14T00:54:18;98673.47;;;5.81;91.13
64053;BME280;50299;49.524;8.536;2023-03-14T00:56:45;98686.38;;;5.68;91.36
64053;BME280;50299;49.524;8.536;2023-03-14T00:59:11;98703.41;;;5.40;91.95
64053;BME280;50299;49.524;8.536;2023-03-14T01:01:38;98695.16;;;5.74;90.92
64053;BME280;50299;49.524;8.536;2023-03-14T01:04:05;98699.56;;;5.54;91.75
64053;BME280;50299;49.524;8.536;2023-03-14T01:06:32;98706.59;;;5.76;91.14
64053;BME280;50299;49.524;8.536;2023-03-14T01:08:59;98710.56;;;5.33;92.58
64053;BME280;50299;49.524;8.536;2023-03-14T01:11:28;98705.91;;;5.12;93.69
64053;BME280;50299;49.524;8.536;2023-03-14T01:13:55;98713.84;;;5.26;92.90
64053;BME280;50299;49.524;8.536;2023-03-14T01:16:24;98718.13;;;5.36;92.14
64053;BME280;50299;49.524;8.536;2023-03-14T01:18:51;98701.75;;;5.27;93.69
64053;BME280;50299;49.524;8.536;2023-03-14T01:21:22;98699.03;;;5.60;93.20
64053;BME280;50299;49.524;8.536;2023-03-14T01:23:52;98708.06;;;5.73;91.70
64053;BME280;50299;49.524;8.536;2023-03-14T01:26:21;98691.94;;;5.26;92.55
64053;BME280;50299;49.524;8.536;2023-03-14T01:28:49;98685.31;;;5.27;93.73
64053;BME280;50299;49.524;8.536;2023-03-14T01:31:17;98685.59;;;5.34;93.21
64053;BME280;50299;49.524;8.536;2023-03-14T01:33:45;98670.91;;;5.51;92.69
64053;BME280;50299;49.524;8.536;2023-03-14T01:36:12;98670.47;;;5.28;93.77
64053;BME280;50299;49.524;8.536;2023-03-14T01:38:40;98672.59;;;5.44;93.83
64053;BME280;50299;49.524;8.536;2023-03-14T01:41:08;98676.84;;;5.53;92.23
64053;BME280;50299;49.524;8.536;2023-03-14T01:43:38;98657.09;;;5.60;92.18
64053;BME280;50299;49.524;8.536;2023-03-14T01:54:14;98651.16;;;5.70;91.99
64053;BME280;50299;49.524;8.536;2023-03-14T01:56:44;98625.84;;;5.85;91.09
64053;BME280;50299;49.524;8.536;2023-03-14T01:59:12;98631.75;;;5.75;90.95
64053;BME280;50299;49.524;8.536;2023-03-14T02:01:41;98619.88;;;5.71;90.94
64053;BME280;50299;49.524;8.536;2023-03-14T02:04:09;98614.38;;;5.59;90.87
64053;BME280;50299;49.524;8.536;2023-03-14T02:09:27;98610.72;;;5.67;91.39
64053;BME280;50299;49.524;8.536;2023-03-14T02:11:54;98602.72;;;5.62;91.77
64053;BME280;50299;49.524;8.536;2023-03-14T02:14:41;98603.31;;;5.55;91.01
64053;BME280;50299;49.524;8.536;2023-03-14T02:17:13;98602.38;;;5.51;90.74
64053;BME280;50299;49.524;8.536;2023-03-14T02:22:22;98599.44;;;5.69;89.99
64053;BME280;50299;49.524;8.536;2023-03-14T02:27:25;98575.00;;;5.63;90.50
64053;BME280;50299;49.524;8.536;2023-03-14T02:29:55;98593.47;;;5.54;90.30
64053;BME280;50299;49.524;8.536;2023-03-14T02:32:25;98595.91;;;5.68;88.14
64053;BME280;50299;49.524;8.536;2023-03-14T02:34:57;98590.75;;;5.79;88.83
64053;BME280;50299;49.524;8.536;2023-03-14T02:38:03;98593.84;;;5.65;87.60
64053;BME280;50299;49.524;8.536;2023-03-14T02:40:21;98577.03;;;5.79;87.34
64053;BME280;50299;49.524;8.536;2023-03-14T02:42:47;98575.97;;;5.47;86.97
64053;BME280;50299;49.524;8.536;2023-03-14T02:47:44;98565.94;;;5.51;86.28
64053;BME280;50299;49.524;8.536;2023-03-14T02:50:16;98557.28;;;5.61;86.31
64053;BME280;50299;49.524;8.536;2023-03-14T02:52:43;98565.47;;;5.36;87.68
64053;BME280;50299;49.524;8.536;2023-03-14T02:55:10;98577.53;;;5.23;88.67
64053;BME280;50299;49.524;8.536;2023-03-14T02:57:36;98574.88;;;5.60;87.09
64053;BME280;50299;49.524;8.536;2023-03-14T03:00:33;98588.75;;;5.30;87.17
64053;BME280;50299;49.524;8.536;2023-03-14T03:03:00;98583.06;;;5.35;86.13
64053;BME280;50299;49.524;8.536;2023-03-14T03:05:27;98567.47;;;5.15;87.53
64053;BME280;50299;49.524;8.536;2023-03-14T03:07:53;98561.13;;;5.35;86.33
64053;BME280;50299;49.524;8.536;2023-03-14T03:10:19;98554.31;;;5.66;85.83
64053;BME280;50299;49.524;8.536;2023-03-14T03:12:46;98540.81;;;5.61;84.30
64053;BME280;50299;49.524;8.536;2023-03-14T03:15:12;98554.63;;;5.40;84.82
64053;BME280;50299;49.524;8.536;2023-03-14T03:17:39;98548.81;;;5.54;84.57
64053;BME280;50299;49.524;8.536;2023-03-14T03:20:06;98540.25;;;5.43;84.51
64053;BME280;50299;49.524;8.536;2023-03-14T03:22:36;98532.38;;;5.66;84.65
64053;BME280;50299;49.524;8.536;2023-03-14T03:25:04;98527.25;;;5.52;85.09
64053;BME280;50299;49.524;8.536;2023-03-14T03:27:32;98526.88;;;5.78;84.87
64053;BME280;50299;49.524;8.536;2023-03-14T03:29:59;98516.16;;;5.85;85.83
64053;BME280;50299;49.524;8.536;2023-03-14T03:32:26;98500.13;;;6.00;84.82
64053;BME280;50299;49.524;8.536;2023-03-14T03:34:55;98495.34;;;5.97;85.49
64053;BME280;50299;49.524;8.536;2023-03-14T03:37:22;98502.31;;;5.94;84.93
64053;BME280;50299;49.524;8.536;2023-03-14T03:39:51;98490.13;;;6.20;84.49
64053;BME280;50299;49.524;8.536;2023-03-14T03:42:20;98490.50;;;6.18;83.63
64053;BME280;50299;49.524;8.536;2023-03-14T03:44:47;98486.94;;;6.18;83.58
64053;BME280;50299;49.524;8.536;2023-03-14T03:47:15;98483.16;;;6.22;83.03
64053;BME280;50299;49.524;8.536;2023-03-14T03:49:42;98476.66;;;6.14;83.78
64053;BME280;50299;49.524;8.536;2023-03-14T03:52:08;98474.81;;;6.19;83.17
64053;BME280;50299;49.524;8.536;2023-03-14T03:54:36;98480.75;;;6.21;83.20
64053;BME280;50299;49.524;8.536;2023-03-14T03:57:03;98473.13;;;6.26;83.51
64053;BME280;50299;49.524;8.536;2023-03-14T03:59:29;98486.03;;;6.26;82.11
64053;BME280;50299;49.524;8.536;2023-03-14T04:01:57;98482.50;;;6.53;83.15
64053;BME280;50299;49.524;8.536;2023-03-14T04:04:23;98481.75;;;6.40;81.58
64053;BME280;50299;49.524;8.536;2023-03-14T04:06:51;98488.13;;;6.45;82.36
64053;BME280;50299;49.524;8.536;2023-03-14T04:09:20;98488.28;;;6.36;82.24
64053;BME280;50299;49.524;8.536;2023-03-14T04:11:48;98484.84;;;6.39;82.81
64053;BME280;50299;49.524;8.536;2023-03-14T04:14:16;98486.72;;;6.23;82.39
64053;BME280;50299;49.524;8.536;2023-03-14T04:16:48;98486.06;;;6.13;82.47
64053;BME280;50299;49.524;8.536;2023-03-14T04:19:15;98477.25;;;6.48;83.21
64053;BME280;50299;49.524;8.536;2023-03-14T04:21:41;98473.34;;;6.33;81.74
64053;BME280;50299;49.524;8.536;2023-03-14T04:24:14;98478.25;;;6.56;80.01
64053;BME280;50299;49.524;8.536;2023-03-14T04:26:42;98471.22;;;6.02;81.29
64053;BME280;50299;49.524;8.536;2023-03-14T04:29:10;98467.22;;;5.87;82.64
64053;BME280;50299;49.524;8.536;2023-03-14T04:31:39;98468.31;;;6.11;83.74
64053;BME280;50299;49.524;8.536;2023-03-14T04:34:15;98454.78;;;5.90;82.21
64053;BME280;50299;49.524;8.536;2023-03-14T04:36:42;98442.97;;;6.02;81.53
64053;BME280;50299;49.524;8.536;2023-03-14T04:39:15;98464.41;;;5.84;82.58
64053;BME280;50299;49.524;8.536;2023-03-14T04:41:49;98465.63;;;5.99;80.46
64053;BME280;50299;49.524;8.536;2023-03-14T04:44:16;98465.31;;;5.88;79.97
64053;BME280;50299;49.524;8.536;2023-03-14T04:46:42;98459.63;;;5.69;81.12
64053;BME280;50299;49.524;8.536;2023-03-14T04:49:09;98458.31;;;5.90;81.81
64053;BME280;50299;49.524;8.536;2023-03-14T04:51:36;98446.19;;;5.91;80.01
64053;BME280;50299;49.524;8.536;2023-03-14T04:54:08;98455.25;;;6.20;79.20
64053;BME280;50299;49.524;8.536;2023-03-14T04:56:37;98447.53;;;6.10;79.61
64053;BME280;50299;49.524;8.536;2023-03-14T04:59:04;98444.28;;;6.20;78.53
64053;BME280;50299;49.524;8.536;2023-03-14T05:01:48;98447.59;;;5.85;77.65
64053;BME280;50299;49.524;8.536;2023-03-14T05:04:16;98452.66;;;6.11;78.40
64053;BME280;50299;49.524;8.536;2023-03-14T05:06:42;98443.16;;;5.81;78.25
64053;BME280;50299;49.524;8.536;2023-03-14T05:09:17;98439.88;;;6.03;77.53
64053;BME280;50299;49.524;8.536;2023-03-14T05:11:46;98436.09;;;6.08;78.57
64053;BME280;50299;49.524;8.536;2023-03-14T05:14:13;98439.63;;;6.08;77.96
64053;BME280;50299;49.524;8.536;2023-03-14T05:16:44;98429.56;;;5.72;78.58
64053;BME280;50299;49.524;8.536;2023-03-14T05:19:12;98436.25;;;5.99;80.42
64053;BME280;50299;49.524;8.536;2023-03-14T05:21:50;98439.59;;;6.21;76.71
64053;BME280;50299;49.524;8.536;2023-03-14T05:24:17;98444.78;;;6.10;76.36
64053;BME280;50299;49.524;8.536;2023-03-14T05:26:46;98450.56;;;5.93;76.88
64053;BME280;50299;49.524;8.536;2023-03-14T05:29:12;98433.72;;;6.06;77.04
64053;BME280;50299;49.524;8.536;2023-03-14T05:31:39;98433.66;;;5.78;77.66
64053;BME280;50299;49.524;8.536;2023-03-14T05:34:27;98442.81;;;5.70;78.68
64053;BME280;50299;49.524;8.536;2023-03-14T05:36:59;98449.19;;;5.86;76.83
64053;BME280;50299;49.524;8.536;2023-03-14T05:39:33;98448.47;;;6.02;77.92
64053;BME280;50299;49.524;8.536;2023-03-14T05:42:01;98442.63;;;6.03;75.95
64053;BME280;50299;49.524;8.536;2023-03-14T05:44:35;98437.50;;;6.02;76.13
64053;BME280;50299;49.524;8.536;2023-03-14T05:47:06;98438.69;;;5.88;76.67
64053;BME280;50299;49.524;8.536;2023-03-14T05:49:44;98443.97;;;5.69;76.38
64053;BME280;50299;49.524;8.536;2023-03-14T05:52:16;98437.00;;;5.72;75.28
64053;BME280;50299;49.524;8.536;2023-03-14T05:54:43;98436.13;;;5.55;76.30
64053;BME280;50299;49.524;8.536;2023-03-14T05:57:11;98432.34;;;5.60;76.38
64053;BME280;50299;49.524;8.536;2023-03-14T05:59:39;98439.53;;;5.64;77.29
64053;BME280;50299;49.524;8.536;2023-03-14T06:02:08;98439.25;;;5.82;76.53
64053;BME280;50299;49.524;8.536;2023-03-14T06:04:37;98438.69;;;5.88;76.84
64053;BME280;50299;49.524;8.536;2023-03-14T06:07:09;98441.66;;;5.71;76.05
64053;BME280;50299;49.524;8.536;2023-03-14T06:09:37;98434.13;;;5.80;74.85
64053;BME280;50299;49.524;8.536;2023-03-14T06:12:06;98434.00;;;5.89;75.72
64053;BME280;50299;49.524;8.536;2023-03-14T06:14:37;98433.13;;;6.13;74.97
64053;BME280;50299;49.524;8.536;2023-03-14T06:17:20;98428.06;;;6.15;74.44
64053;BME280;50299;49.524;8.536;2023-03-14T06:19:47;98428.81;;;6.00;73.78
64053;BME280;50299;49.524;8.536;2023-03-14T06:22:16;98427.19;;;6.11;73.99
64053;BME280;50299;49.524;8.536;2023-03-14T06:24:43;98421.44;;;6.16;73.16
64053;BME280;50299;49.524;8.536;2023-03-14T06:27:16;98424.47;;;5.99;72.84
64053;BME280;50299;49.524;8.536;2023-03-14T06:29:56;98422.84;;;6.10;73.33
64053;BME280;50299;49.524;8.536;2023-03-14T06:32:27;98411.97;;;6.26;72.01
64053;BME280;50299;49.524;8.536;2023-03-14T06:35:00;98421.78;;;6.14;72.17
64053;BME280;50299;49.524;8.536;2023-03-14T06:37:29;98426.22;;;6.19;71.50
64053;BME280;50299;49.524;8.536;2023-03-14T06:39:56;98427.97;;;6.24;71.93
64053;BME280;50299;49.524;8.536;2023-03-14T06:42:22;98431.63;;;6.15;72.58
64053;BME280;50299;49.524;8.536;2023-03-14T06:44:51;98434.44;;;5.91;71.53
64053;BME280;50299;49.524;8.536;2023-03-14T06:47:17;98427.56;;;5.97;74.43
64053;BME280;50299;49.524;8.536;2023-03-14T06:49:44;98417.09;;;5.75;77.31
64053;BME280;50299;49.524;8.536;2023-03-14T06:52:16;98413.97;;;5.48;77.22
64053;BME280;50299;49.524;8.536;2023-03-14T06:54:45;98411.28;;;5.76;77.06
64053;BME280;50299;49.524;8.536;2023-03-14T06:57:12;98412.53;;;5.66;77.03
64053;BME280;50299;49.524;8.536;2023-03-14T06:59:38;98415.03;;;5.84;77.13
64053;BME280;50299;49.524;8.536;2023-03-14T07:02:10;98422.53;;;5.99;75.54
64053;BME280;50299;49.524;8.536;2023-03-14T07:04:39;98418.00;;;5.79;74.89
64053;BME280;50299;49.524;8.536;2023-03-14T07:07:17;98423.31;;;6.00;73.38
64053;BME280;50299;49.524;8.536;2023-03-14T07:09:45;98419.44;;;6.01;74.10
64053;BME280;50299;49.524;8.536;2023-03-14T07:12:14;98435.25;;;6.20;73.09
64053;BME280;50299;49.524;8.536;2023-03-14T07:14:48;98420.38;;;6.33;73.57
64053;BME280;50299;49.524;8.536;2023-03-14T07:17:17;98435.66;;;6.06;72.70
64053;BME280;50299;49.524;8.536;2023-03-14T07:19:47;98428.59;;;6.33;72.79
64053;BME280;50299;49.524;8.536;2023-03-14T07:22:14;98432.72;;;6.39;72.30
64053;BME280;50299;49.524;8.536;2023-03-14T07:24:47;98429.50;;;6.37;72.35
64053;BME280;50299;49.524;8.536;2023-03-14T07:27:16;98432.28;;;6.53;71.98
64053;BME280;50299;49.524;8.536;2023-03-14T07:29:46;98437.09;;;6.56;70.91
64053;BME280;50299;49.524;8.536;2023-03-14T07:32:18;98434.72;;;6.26;70.16
64053;BME280;50299;49.524;8.536;2023-03-14T07:34:50;98440.41;;;6.33;70.79
64053;BME280;50299;49.524;8.536;2023-03-14T07:37:19;98444.34;;;5.96;71.79
64053;BME280;50299;49.524;8.536;2023-03-14T07:39:49;98437.78;;;5.84;72.07
64053;BME280;50299;49.524;8.536;2023-03-14T07:42:17;98442.25;;;6.17;71.00
64053;BME280;50299;49.524;8.536;2023-03-14T07:44:45;98440.75;;;6.20;71.70
64053;BME280;50299;49.524;8.536;2023-03-14T07:47:14;98428.47;;;6.42;73.31
64053;BME280;50299;49.524;8.536;2023-03-14T07:49:43;98429.22;;;6.26;71.70
64053;BME280;50299;49.524;8.536;2023-03-14T07:52:09;98408.19;;;6.18;72.62
64053;BME280;50299;49.524;8.536;2023-03-14T07:54:38;98409.38;;;6.61;71.51
64053;BME280;50299;49.524;8.536;2023-03-14T07:57:13;98418.97;;;6.67;71.23
64053;BME280;50299;49.524;8.536;2023-03-14T07:59:39;98419.56;;;6.32;71.88
64053;BME280;50299;49.524;8.536;2023-03-14T08:02:21;98407.59;;;5.97;72.38
64053;BME280;50299;49.524;8.536;2023-03-14T08:04:51;98414.66;;;5.98;71.72
64053;BME280;50299;49.524;8.536;2023-03-14T08:07:18;98401.44;;;6.15;73.41
64053;BME280;50299;49.524;8.536;2023-03-14T08:09:47;98421.41;;;6.28;72.05
64053;BME280;50299;49.524;8.536;2023-03-14T08:12:18;98429.66;;;6.56;71.80
64053;BME280;50299;49.524;8.536;2023-03-14T08:14:46;98427.97;;;6.24;71.17
64053;BME280;50299;49.524;8.536;2023-03-14T08:17:13;98424.25;;;6.60;69.72
64053;BME280;50299;49.524;8.536;2023-03-14T08:19:42;98436.94;;;6.80;71.83
64053;BME280;50299;49.524;8.536;2023-03-14T08:22:13;98442.84;;;6.23;71.10
64053;BME280;50299;49.524;8.536;2023-03-14T08:24:44;98427.13;;;6.95;73.13
64053;BME280;50299;49.524;8.536;2023-03-14T08:27:13;98438.09;;;6.79;70.36
64053;BME280;50299;49.524;8.536;2023-03-14T08:29:41;98438.56;;;7.13;70.32
64053;BME280;50299;49.524;8.536;2023-03-14T08:32:15;98449.34;;;6.90;69.79
64053;BME280;50299;49.524;8.536;2023-03-14T08:34:49;98457.59;;;6.90;70.99
64053;BME280;50299;49.524;8.536;2023-03-14T08:37:16;98442.72;;;7.07;68.79
64053;BME280;50299;49.524;8.536;2023-03-14T08:39:59;98461.59;;;6.49;69.36
64053;BME280;50299;49.524;8.536;2023-03-14T08:42:26;98463.88;;;6.75;69.79
64053;BME280;50299;49.524;8.536;2023-03-14T08:44:57;98463.94;;;6.62;68.35
64053;BME280;50299;49.524;8.536;2023-03-14T08:47:24;98466.91;;;6.85;71.79
64053;BME280;50299;49.524;8.536;2023-03-14T08:49:54;98454.44;;;7.04;69.27
64053;BME280;50299;49.524;8.536;2023-03-14T08:52:21;98469.28;;;6.71;69.54
64053;BME280;50299;49.524;8.536;2023-03-14T08:54:48;98478.94;;;6.81;68.42
64053;BME280;50299;49.524;8.536;2023-03-14T08:57:15;98467.44;;;7.07;68.24
64053;BME280;50299;49.524;8.536;2023-03-14T08:59:42;98472.69;;;6.96;68.12
64053;BME280;50299;49.524;8.536;2023-03-14T09:02:26;98468.53;;;6.30;69.44
64053;BME280;50299;49.524;8.536;2023-03-14T09:04:58;98468.69;;;6.94;68.86
64053;BME280;50299;49.524;8.536;2023-03-14T09:07:25;98463.88;;;6.90;68.05
64053;BME280;50299;49.524;8.536;2023-03-14T09:09:55;98461.31;;;6.98;69.92
64053;BME280;50299;49.524;8.536;2023-03-14T09:12:21;98468.47;;;6.86;69.30
64053;BME280;50299;49.524;8.536;2023-03-14T09:14:48;98464.22;;;6.45;69.25
64053;BME280;50299;49.524;8.536;2023-03-14T09:17:21;98463.16;;;6.62;69.40
64053;BME280;50299;49.524;8.536;2023-03-14T09:19:47;98460.97;;;7.15;68.35
64053;BME280;50299;49.524;8.536;2023-03-14T09:22:26;98464.72;;;7.54;68.63
64053;BME280;50299;49.524;8.536;2023-03-14T09:24:53;98463.66;;;6.96;68.24
64053;BME280;50299;49.524;8.536;2023-03-14T09:27:21;98472.94;;;7.07;68.69
64053;BME280;50299;49.524;8.536;2023-03-14T09:29:50;98463.16;;;6.78;69.81
64053;BME280;50299;49.524;8.536;2023-03-14T09:32:17;98457.75;;;6.81;68.55
64053;BME280;50299;49.524;8.536;2023-03-14T09:34:48;98465.38;;;6.44;70.40
64053;BME280;50299;49.524;8.536;2023-03-14T09:37:18;98454.34;;;6.56;70.60
64053;BME280;50299;49.524;8.536;2023-03-14T09:42:37;98462.09;;;6.82;71.68
64053;BME280;50299;49.524;8.536;2023-03-14T09:45:32;98455.03;;;6.81;71.26
64053;BME280;50299;49.524;8.536;2023-03-14T09:48:01;98468.75;;;6.81;70.56
64053;BME280;50299;49.524;8.536;2023-03-14T09:50:37;98466.63;;;6.75;72.35
64053;BME280;50299;49.524;8.536;2023-03-14T09:53:13;98465.97;;;6.65;72.08
64053;BME280;50299;49.524;8.536;2023-03-14T09:55:46;98466.97;;;6.45;73.55
64053;BME280;50299;49.524;8.536;2023-03-14T09:58:18;98442.84;;;6.51;74.14
64053;BME280;50299;49.524;8.536;2023-03-14T10:00:58;98474.34;;;6.16;74.13
64053;BME280;50299;49.524;8.536;2023-03-14T10:03:33;98475.53;;;6.56;75.74
64053;BME280;50299;49.524;8.536;2023-03-14T10:06:08;98467.59;;;6.67;73.37
64053;BME280;50299;49.524;8.536;2023-03-14T10:08:42;98468.41;;;6.99;73.43
64053;BME280;50299;49.524;8.536;2023-03-14T10:11:15;98478.09;;;6.64;73.63
64053;BME280;50299;49.524;8.536;2023-03-14T10:14:03;98480.81;;;6.93;75.25
64053;BME280;50299;49.524;8.536;2023-03-14T10:16:44;98477.94;;;6.73;73.92
64053;BME280;50299;49.524;8.536;2023-03-14T10:19:16;98474.28;;;7.13;74.75
64053;BME280;50299;49.524;8.536;2023-03-14T10:21:53;98480.50;;;7.26;73.25
64053;BME280;50299;49.524;8.536;2023-03-14T10:24:27;98470.16;;;6.75;74.58
64053;BME280;50299;49.524;8.536;2023-03-14T10:27:08;98479.03;;;6.28;79.12
64053;BME280;50299;49.524;8.536;2023-03-14T10:29:58;98470.50;;;6.58;77.38
64053;BME280;50299;49.524;8.536;2023-03-14T10:32:34;98474.03;;;6.74;78.08
64053;BME280;50299;49.524;8.536;2023-03-14T10:35:21;98480.38;;;6.47;78.37
64053;BME280;50299;49.524;8.536;2023-03-14T10:37:56;98464.59;;;6.44;79.27
64053;BME280;50299;49.524;8.536;2023-03-14T10:40:52;98471.28;;;6.30;78.86
64053;BME280;50299;49.524;8.536;2023-03-14T10:43:27;98479.44;;;6.02;78.91
64053;BME280;50299;49.524;8.536;2023-03-14T10:46:13;98463.69;;;6.39;80.13
64053;BME280;50299;49.524;8.536;2023-03-14T10:48:46;98472.72;;;6.40;78.43
64053;BME280;50299;49.524;8.536;2023-03-14T10:53:46;98471.63;;;6.16;83.98
64053;BME280;50299;49.524;8.536;2023-03-14T10:56:18;98471.50;;;5.60;90.99
64053;BME280;50299;49.524;8.536;2023-03-14T10:58:47;98467.75;;;5.40;100.00
64053;BME280;50299;49.524;8.536;2023-03-14T11:01:32;98475.59;;;5.17;100.00
64053;BME280;50299;49.524;8.536;2023-03-14T11:09:45;98494.22;;;4.79;100.00
64053;BME280;50299;49.524;8.536;2023-03-14T11:14:47;98501.84;;;4.73;100.00
64053;BME280;50299;49.524;8.536;2023-03-14T11:22:55;98490.56;;;5.45;91.40
64053;BME280;50299;49.524;8.536;2023-03-14T11:30:51;98519.78;;;5.28;92.70
64053;BME280;50299;49.524;8.536;2023-03-14T11:33:28;98504.75;;;5.34;95.69
64053;BME280;50299;49.524;8.536;2023-03-14T11:36:21;98525.22;;;5.04;100.00
64053;BME280;50299;49.524;8.536;2023-03-14T11:38:56;98529.59;;;4.63;100.00
64053;BME280;50299;49.524;8.536;2023-03-14T11:41:32;98535.09;;;4.63;100.00
64053;BME280;50299;49.524;8.536;2023-03-14T11:44:04;98538.31;;;4.65;100.00
64053;BME280;50299;49.524;8.536;2023-03-14T11:46:41;98551.69;;;4.79;100.00
64053;BME280;50299;49.524;8.536;2023-03-14T11:52:05;98570.34;;;4.85;100.00
64053;BME280;50299;49.524;8.536;2023-03-14T11:54:52;98566.25;;;4.71;100.00
64053;BME280;50299;49.524;8.536;2023-03-14T11:57:21;98599.09;;;4.71;100.00
64053;BME280;50299;49.524;8.536;2023-03-14T12:00:19;98599.31;;;4.65;100.00
64053;BME280;50299;49.524;8.536;2023-03-14T12:05:56;98636.31;;;4.92;89.61
64053;BME280;50299;49.524;8.536;2023-03-14T12:08:54;98648.03;;;4.51;88.06
64053;BME280;50299;49.524;8.536;2023-03-14T12:11:38;98663.81;;;4.25;89.41
64053;BME280;50299;49.524;8.536;2023-03-14T12:14:27;98655.69;;;4.37;87.12
64053;BME280;50299;49.524;8.536;2023-03-14T12:16:58;98696.41;;;4.59;86.64
64053;BME280;50299;49.524;8.536;2023-03-14T12:19:31;98698.69;;;4.87;84.04
64053;BME280;50299;49.524;8.536;2023-03-14T12:24:34;98726.28;;;5.03;81.74
64053;BME280;50299;49.524;8.536;2023-03-14T12:27:04;98731.16;;;5.18;78.80
64053;BME280;50299;49.524;8.536;2023-03-14T12:29:31;98748.03;;;5.41;78.40
64053;BME280;50299;49.524;8.536;2023-03-14T12:34:36;98741.06;;;5.64;76.13
64053;BME280;50299;49.524;8.536;2023-03-14T12:39:50;98770.84;;;4.06;92.43
64053;BME280;50299;49.524;8.536;2023-03-14T12:48:00;98807.13;;;4.32;73.85
64053;BME280;50299;49.524;8.536;2023-03-14T12:50:33;98839.47;;;4.30;70.87
64053;BME280;50299;49.524;8.536;2023-03-14T12:59:33;98838.19;;;4.75;68.18
64053;BME280;50299;49.524;8.536;2023-03-14T13:04:35;98839.69;;;5.31;64.14
64053;BME280;50299;49.524;8.536;2023-03-14T13:07:12;98863.94;;;5.62;63.91
64053;BME280;50299;49.524;8.536;2023-03-14T13:15:41;98862.66;;;4.33;75.98
64053;BME280;50299;49.524;8.536;2023-03-14T13:18:35;98891.31;;;4.09;72.15
64053;BME280;50299;49.524;8.536;2023-03-14T13:21:22;98920.28;;;4.28;70.99
64053;BME280;50299;49.524;8.536;2023-03-14T13:23:59;98924.13;;;4.44;66.30
64053;BME280;50299;49.524;8.536;2023-03-14T13:26:41;98926.72;;;4.14;66.21
64053;BME280;50299;49.524;8.536;2023-03-14T13:29:35;98946.41;;;4.72;65.35
64053;BME280;50299;49.524;8.536;2023-03-14T13:32:26;98950.22;;;5.06;63.64
64053;BME280;50299;49.524;8.536;2023-03-14T13:35:14;98962.06;;;4.54;61.57
64053;BME280;50299;49.524;8.536;2023-03-14T13:37:42;98961.47;;;4.23;62.04
64053;BME280;50299;49.524;8.536;2023-03-14T13:40:20;98984.75;;;4.63;62.59
64053;BME280;50299;49.524;8.536;2023-03-14T13:43:30;98985.09;;;5.17;60.64
64053;BME280;50299;49.524;8.536;2023-03-14T13:46:16;98994.00;;;5.14;59.38
64053;BME280;50299;49.524;8.536;2023-03-14T13:48:58;99012.63;;;4.83;57.84
64053;BME280;50299;49.524;8.536;2023-03-14T13:51:27;99040.31;;;4.29;57.84
64053;BME280;50299;49.524;8.536;2023-03-14T13:54:02;99038.56;;;4.33;58.12
64053;BME280;50299;49.524;8.536;2023-03-14T13:56:43;99055.91;;;3.46;60.06
64053;BME280;50299;49.524;8.536;2023-03-14T13:59:30;99057.09;;;3.62;60.59
64053;BME280;50299;49.524;8.536;2023-03-14T14:02:00;99057.13;;;3.39;59.12
64053;BME280;50299;49.524;8.536;2023-03-14T14:04:28;99071.34;;;3.99;58.31
64053;BME280;50299;49.524;8.536;2023-03-14T14:07:10;99070.44;;;3.72;56.07
64053;BME280;50299;49.524;8.536;2023-03-14T14:09:50;99074.56;;;4.01;55.19
64053;BME280;50299;49.524;8.536;2023-03-14T14:12:30;99088.78;;;4.98;55.14
64053;BME280;50299;49.524;8.536;2023-03-14T14:15:05;99088.47;;;4.91;53.30
64053;BME280;50299;49.524;8.536;2023-03-14T14:17:42;99098.09;;;5.23;51.03
64053;BME280;50299;49.524;8.536;2023-03-14T14:20:21;99090.06;;;5.01;52.51
64053;BME280;50299;49.524;8.536;2023-03-14T14:22:50;99103.25;;;5.16;50.52
64053;BME280;50299;49.524;8.536;2023-03-14T14:25:17;99098.56;;;5.16;50.95
64053;BME280;50299;49.524;8.536;2023-03-14T14:27:49;99109.06;;;4.88;49.71
64053;BME280;50299;49.524;8.536;2023-03-14T14:32:47;99111.53;;;5.46;48.12
64053;BME280;50299;49.524;8.536;2023-03-14T14:35:26;99129.88;;;6.60;44.02
64053;BME280;50299;49.524;8.536;2023-03-14T14:37:53;99123.94;;;6.79;42.77
64053;BME280;50299;49.524;8.536;2023-03-14T14:40:25;99135.81;;;6.41;42.79
64053;BME280;50299;49.524;8.536;2023-03-14T14:43:04;99141.56;;;5.89;43.85
64053;BME280;50299;49.524;8.536;2023-03-14T14:45:33;99151.09;;;6.21;42.42
64053;BME280;50299;49.524;8.536;2023-03-14T14:48:12;99143.03;;;6.16;45.06
64053;BME280;50299;49.524;8.536;2023-03-14T14:50:49;99166.06;;;5.94;43.42
64053;BME280;50299;49.524;8.536;2023-03-14T14:53:30;99169.72;;;5.69;43.68